sensor_id;sensor_type;location;lat;lon;timestamp;temperature;humidity
18823;DHT22;9540;51.550;7.980;2023-06-04T00:01:22;7.70;99.90
18823;DHT22;9540;51.550;7.980;2023-06-04T00:03:50;7.60;99.90
18823;DHT22;9540;51.550;7.980;2023-06-04T00:06:17;7.70;99.90
18823;DHT22;9540;51.550;7.980;2023-06-04T00:08:44;7.60;99.90
18823;DHT22;9540;51.550;7.980;2023-06-04T00:11:13;7.60;99.90
18823;DHT22;9540;51.550;7.980;2023-06-04T00:13:41;7.50;99.90
18823;DHT22;9540;51.550;7.980;2023-06-04T00:16:08;7.40;99.90
18823;DHT22;9540;51.550;7.980;2023-06-04T00:18:35;7.30;99.90
18823;DHT22;9540;51.550;7.980;2023-06-04T00:21:02;7.30;99.90
18823;DHT22;9540;51.550;7.980;2023-06-04T00:23:29;7.20;99.90
18823;DHT22;9540;51.550;7.980;2023-06-04T00:25:56;7.20;99.90
18823;DHT22;9540;51.550;7.980;2023-06-04T00:28:25;7.10;99.90
18823;DHT22;9540;51.550;7.980;2023-06-04T00:30:52;7.10;99.90
18823;DHT22;9540;51.550;7.980;2023-06-04T00:33:19;7.10;99.90
18823;DHT22;9540;51.550;7.980;2023-06-04T00:35:46;7.10;99.90
18823;DHT22;9540;51.550;7.980;2023-06-04T00:38:13;7.10;99.90
18823;DHT22;9540;51.550;7.980;2023-06-04T00:40:40;7.00;99.90
18823;DHT22;9540;51.550;7.980;2023-06-04T00:43:07;7.00;99.90
18823;DHT22;9540;51.550;7.980;2023-06-04T00:45:37;6.90;99.90
18823;DHT22;9540;51.550;7.980;2023-06-04T00:48:04;6.90;99.90
18823;DHT22;9540;51.550;7.980;2023-06-04T00:50:32;6.90;99.90
18823;DHT22;9540;51.550;7.980;2023-06-04T00:53:02;6.90;99.90
18823;DHT22;9540;51.550;7.980;2023-06-04T00:55:29;6.90;99.90
18823;DHT22;9540;51.550;7.980;2023-06-04T00:57:57;6.90;99.90
18823;DHT22;9540;51.550;7.980;2023-06-04T01:00:24;6.90;99.90
18823;DHT22;9540;51.550;7.980;2023-06-04T01:02:52;6.90;99.90
18823;DHT22;9540;51.550;7.980;2023-06-04T01:05:26;6.90;99.90
18823;DHT22;9540;51.550;7.980;2023-06-04T01:07:56;6.90;99.90
18823;DHT22;9540;51.550;7.980;2023-06-04T01:10:25;6.90;99.90
18823;DHT22;9540;51.550;7.980;2023-06-04T01:12:52;6.90;99.90
18823;DHT22;9540;51.550;7.980;2023-06-04T01:15:19;6.90;99.90
18823;DHT22;9540;51.550;7.980;2023-06-04T01:17:49;6.90;99.90
18823;DHT22;9540;51.550;7.980;2023-06-04T01:20:27;6.80;99.90
18823;DHT22;9540;51.550;7.980;2023-06-04T01:23:19;6.80;99.90
18823;DHT22;9540;51.550;7.980;2023-06-04T01:25:54;6.80;99.90
18823;DHT22;9540;51.550;7.980;2023-06-04T01:28:23;6.70;99.90
18823;DHT22;9540;51.550;7.980;2023-06-04T01:30:52;6.70;99.90
18823;DHT22;9540;51.550;7.980;2023-06-04T01:33:22;6.70;99.90
18823;DHT22;9540;51.550;7.980;2023-06-04T01:35:51;6.70;99.90
18823;DHT22;9540;51.550;7.980;2023-06-04T01:38:18;6.70;99.90
18823;DHT22;9540;51.550;7.980;2023-06-04T01:40:45;6.70;99.90
18823;DHT22;9540;51.550;7.980;2023-06-04T01:43:13;6.60;99.90
18823;DHT22;9540;51.550;7.980;2023-06-04T01:45:40;6.50;99.90
18823;DHT22;9540;51.550;7.980;2023-06-04T01:48:07;6.40;99.90
18823;DHT22;9540;51.550;7.980;2023-06-04T01:50:34;6.40;99.90
18823;DHT22;9540;51.550;7.980;2023-06-04T01:53:03;6.40;99.90
18823;DHT22;9540;51.550;7.980;2023-06-04T01:55:30;6.30;99.90
18823;DHT22;9540;51.550;7.980;2023-06-04T01:57:59;6.20;99.90
18823;DHT22;9540;51.550;7.980;2023-06-04T02:00:26;6.20;99.90
18823;DHT22;9540;51.550;7.980;2023-06-04T02:02:54;6.10;99.90
18823;DHT22;9540;51.550;7.980;2023-06-04T02:05:22;6.10;99.90
18823;DHT22;9540;51.550;7.980;2023-06-04T02:07:50;6.10;99.90
18823;DHT22;9540;51.550;7.980;2023-06-04T02:10:19;6.00;99.90
18823;DHT22;9540;51.550;7.980;2023-06-04T02:12:54;5.90;99.90
18823;DHT22;9540;51.550;7.980;2023-06-04T02:15:22;5.80;99.90
18823;DHT22;9540;51.550;7.980;2023-06-04T02:17:49;5.80;99.90
18823;DHT22;9540;51.550;7.980;2023-06-04T02:20:17;5.80;99.90
18823;DHT22;9540;51.550;7.980;2023-06-04T02:22:44;5.70;99.90
18823;DHT22;9540;51.550;7.980;2023-06-04T02:25:12;5.70;99.90
18823;DHT22;9540;51.550;7.980;2023-06-04T02:27:40;5.70;99.90
18823;DHT22;9540;51.550;7.980;2023-06-04T02:30:08;5.70;99.90
18823;DHT22;9540;51.550;7.980;2023-06-04T02:32:35;5.60;99.90
18823;DHT22;9540;51.550;7.980;2023-06-04T02:35:03;5.60;99.90
18823;DHT22;9540;51.550;7.980;2023-06-04T02:37:30;5.60;99.90
18823;DHT22;9540;51.550;7.980;2023-06-04T02:39:57;5.60;99.90
18823;DHT22;9540;51.550;7.980;2023-06-04T02:42:24;5.60;99.90
18823;DHT22;9540;51.550;7.980;2023-06-04T02:44:52;5.70;99.90
18823;DHT22;9540;51.550;7.980;2023-06-04T02:47:19;5.70;99.90
18823;DHT22;9540;51.550;7.980;2023-06-04T02:49:47;5.70;99.90
18823;DHT22;9540;51.550;7.980;2023-06-04T02:52:14;5.70;99.90
18823;DHT22;9540;51.550;7.980;2023-06-04T02:54:41;5.70;99.90
18823;DHT22;9540;51.550;7.980;2023-06-04T02:57:08;5.70;99.90
18823;DHT22;9540;51.550;7.980;2023-06-04T02:59:35;5.70;99.90
18823;DHT22;9540;51.550;7.980;2023-06-04T03:02:05;5.70;99.90
18823;DHT22;9540;51.550;7.980;2023-06-04T03:04:32;5.70;99.90
18823;DHT22;9540;51.550;7.980;2023-06-04T03:07:01;5.70;99.90
18823;DHT22;9540;51.550;7.980;2023-06-04T03:09:29;5.60;99.90
18823;DHT22;9540;51.550;7.980;2023-06-04T03:11:59;5.60;99.90
18823;DHT22;9540;51.550;7.980;2023-06-04T03:14:27;5.60;99.90
18823;DHT22;9540;51.550;7.980;2023-06-04T03:16:58;5.60;99.90
18823;DHT22;9540;51.550;7.980;2023-06-04T03:19:35;5.60;99.90
18823;DHT22;9540;51.550;7.980;2023-06-04T03:22:03;5.60;99.90
18823;DHT22;9540;51.550;7.980;2023-06-04T03:24:33;5.60;99.90
18823;DHT22;9540;51.550;7.980;2023-06-04T03:27:01;5.50;99.90
18823;DHT22;9540;51.550;7.980;2023-06-04T03:29:28;5.40;99.90
18823;DHT22;9540;51.550;7.980;2023-06-04T03:31:59;5.40;99.90
18823;DHT22;9540;51.550;7.980;2023-06-04T03:34:26;5.40;99.90
18823;DHT22;9540;51.550;7.980;2023-06-04T03:36:58;5.40;99.90
18823;DHT22;9540;51.550;7.980;2023-06-04T03:39:25;5.50;99.90
18823;DHT22;9540;51.550;7.980;2023-06-04T03:41:53;5.50;99.90
18823;DHT22;9540;51.550;7.980;2023-06-04T03:44:21;5.50;99.90
18823;DHT22;9540;51.550;7.980;2023-06-04T03:46:49;5.50;99.90
18823;DHT22;9540;51.550;7.980;2023-06-04T03:49:16;5.50;99.90
18823;DHT22;9540;51.550;7.980;2023-06-04T03:51:43;5.60;99.90
18823;DHT22;9540;51.550;7.980;2023-06-04T03:54:12;5.60;99.90
18823;DHT22;9540;51.550;7.980;2023-06-04T03:56:43;5.70;99.90
18823;DHT22;9540;51.550;7.980;2023-06-04T03:59:10;5.70;99.90
18823;DHT22;9540;51.550;7.980;2023-06-04T04:01:37;5.80;99.90
18823;DHT22;9540;51.550;7.980;2023-06-04T04:04:05;5.80;99.90
18823;DHT22;9540;51.550;7.980;2023-06-04T04:06:32;5.90;99.90
18823;DHT22;9540;51.550;7.980;2023-06-04T04:08:59;6.00;99.90
18823;DHT22;9540;51.550;7.980;2023-06-04T04:11:31;6.10;99.90
18823;DHT22;9540;51.550;7.980;2023-06-04T04:13:58;6.10;99.90
18823;DHT22;9540;51.550;7.980;2023-06-04T04:16:26;6.20;99.90
18823;DHT22;9540;51.550;7.980;2023-06-04T04:18:54;6.30;99.90
18823;DHT22;9540;51.550;7.980;2023-06-04T04:21:21;6.30;99.90
18823;DHT22;9540;51.550;7.980;2023-06-04T04:23:49;6.40;99.90
18823;DHT22;9540;51.550;7.980;2023-06-04T04:26:17;6.50;99.90
18823;DHT22;9540;51.550;7.980;2023-06-04T04:28:45;6.60;99.90
18823;DHT22;9540;51.550;7.980;2023-06-04T04:31:13;6.70;99.90
18823;DHT22;9540;51.550;7.980;2023-06-04T04:33:40;6.80;99.90
18823;DHT22;9540;51.550;7.980;2023-06-04T04:36:07;6.90;99.90
18823;DHT22;9540;51.550;7.980;2023-06-04T04:38:39;7.00;99.90
18823;DHT22;9540;51.550;7.980;2023-06-04T04:41:06;7.10;99.90
18823;DHT22;9540;51.550;7.980;2023-06-04T04:43:36;7.20;99.90
18823;DHT22;9540;51.550;7.980;2023-06-04T04:46:06;7.30;99.90
18823;DHT22;9540;51.550;7.980;2023-06-04T04:48:33;7.40;99.90
18823;DHT22;9540;51.550;7.980;2023-06-04T04:51:00;7.50;99.90
18823;DHT22;9540;51.550;7.980;2023-06-04T04:53:28;7.60;99.90
18823;DHT22;9540;51.550;7.980;2023-06-04T04:55:55;7.80;99.90
18823;DHT22;9540;51.550;7.980;2023-06-04T04:58:22;7.90;99.90
18823;DHT22;9540;51.550;7.980;2023-06-04T05:00:49;8.00;99.90
18823;DHT22;9540;51.550;7.980;2023-06-04T05:03:18;8.10;99.90
18823;DHT22;9540;51.550;7.980;2023-06-04T05:05:45;8.30;99.90
18823;DHT22;9540;51.550;7.980;2023-06-04T05:08:12;8.40;99.90
18823;DHT22;9540;51.550;7.980;2023-06-04T05:10:39;8.50;99.90
18823;DHT22;9540;51.550;7.980;2023-06-04T05:13:06;8.60;99.90
18823;DHT22;9540;51.550;7.980;2023-06-04T05:15:34;8.80;99.90
18823;DHT22;9540;51.550;7.980;2023-06-04T05:18:01;8.90;99.90
18823;DHT22;9540;51.550;7.980;2023-06-04T05:20:30;9.00;99.90
18823;DHT22;9540;51.550;7.980;2023-06-04T05:22:57;9.20;99.90
18823;DHT22;9540;51.550;7.980;2023-06-04T05:25:24;9.30;99.90
18823;DHT22;9540;51.550;7.980;2023-06-04T05:27:52;9.50;99.90
18823;DHT22;9540;51.550;7.980;2023-06-04T05:30:20;9.60;99.90
18823;DHT22;9540;51.550;7.980;2023-06-04T05:32:47;9.70;99.90
18823;DHT22;9540;51.550;7.980;2023-06-04T05:35:16;9.80;99.90
18823;DHT22;9540;51.550;7.980;2023-06-04T05:37:45;10.00;99.90
18823;DHT22;9540;51.550;7.980;2023-06-04T05:40:19;10.00;99.90
18823;DHT22;9540;51.550;7.980;2023-06-04T05:42:46;10.10;99.90
18823;DHT22;9540;51.550;7.980;2023-06-04T05:45:14;10.20;99.90
18823;DHT22;9540;51.550;7.980;2023-06-04T05:47:41;10.30;99.90
18823;DHT22;9540;51.550;7.980;2023-06-04T05:50:09;10.40;99.90
18823;DHT22;9540;51.550;7.980;2023-06-04T05:52:36;10.50;99.90
18823;DHT22;9540;51.550;7.980;2023-06-04T05:55:05;10.50;99.90
18823;DHT22;9540;51.550;7.980;2023-06-04T05:57:33;10.60;99.90
18823;DHT22;9540;51.550;7.980;2023-06-04T06:00:01;10.70;99.90
18823;DHT22;9540;51.550;7.980;2023-06-04T06:02:28;10.80;99.90
18823;DHT22;9540;51.550;7.980;2023-06-04T06:04:58;10.80;99.90
18823;DHT22;9540;51.550;7.980;2023-06-04T06:07:25;11.00;99.90
18823;DHT22;9540;51.550;7.980;2023-06-04T06:09:52;11.20;99.90
18823;DHT22;9540;51.550;7.980;2023-06-04T06:12:20;11.40;99.90
18823;DHT22;9540;51.550;7.980;2023-06-04T06:14:47;11.50;99.90
18823;DHT22;9540;51.550;7.980;2023-06-04T06:17:15;11.70;99.90
18823;DHT22;9540;51.550;7.980;2023-06-04T06:19:42;11.80;99.90
18823;DHT22;9540;51.550;7.980;2023-06-04T06:22:09;11.80;99.90
18823;DHT22;9540;51.550;7.980;2023-06-04T06:24:38;11.90;99.90
18823;DHT22;9540;51.550;7.980;2023-06-04T06:27:06;12.00;99.90
18823;DHT22;9540;51.550;7.980;2023-06-04T06:29:35;12.10;99.90
18823;DHT22;9540;51.550;7.980;2023-06-04T06:32:03;12.20;99.90
18823;DHT22;9540;51.550;7.980;2023-06-04T06:34:30;12.30;99.90
18823;DHT22;9540;51.550;7.980;2023-06-04T06:36:57;12.30;99.90
18823;DHT22;9540;51.550;7.980;2023-06-04T06:39:24;12.30;99.90
18823;DHT22;9540;51.550;7.980;2023-06-04T06:41:51;12.30;99.90
18823;DHT22;9540;51.550;7.980;2023-06-04T06:44:18;12.40;99.90
18823;DHT22;9540;51.550;7.980;2023-06-04T06:46:47;12.40;99.90
18823;DHT22;9540;51.550;7.980;2023-06-04T06:49:14;12.50;99.90
18823;DHT22;9540;51.550;7.980;2023-06-04T06:51:41;12.60;99.90
18823;DHT22;9540;51.550;7.980;2023-06-04T06:54:09;12.70;99.90
18823;DHT22;9540;51.550;7.980;2023-06-04T06:56:36;12.80;99.90
18823;DHT22;9540;51.550;7.980;2023-06-04T06:59:03;12.90;99.90
18823;DHT22;9540;51.550;7.980;2023-06-04T07:01:31;13.00;99.90
18823;DHT22;9540;51.550;7.980;2023-06-04T07:04:00;13.10;99.90
18823;DHT22;9540;51.550;7.980;2023-06-04T07:06:27;13.30;99.90
18823;DHT22;9540;51.550;7.980;2023-06-04T07:08:54;13.40;99.90
18823;DHT22;9540;51.550;7.980;2023-06-04T07:11:22;13.60;99.90
18823;DHT22;9540;51.550;7.980;2023-06-04T07:13:49;13.70;99.90
18823;DHT22;9540;51.550;7.980;2023-06-04T07:16:16;13.80;99.90
18823;DHT22;9540;51.550;7.980;2023-06-04T07:18:47;13.90;99.90
18823;DHT22;9540;51.550;7.980;2023-06-04T07:21:16;13.90;99.90
18823;DHT22;9540;51.550;7.980;2023-06-04T07:23:44;14.00;99.90
18823;DHT22;9540;51.550;7.980;2023-06-04T07:26:15;14.10;99.90
18823;DHT22;9540;51.550;7.980;2023-06-04T07:28:42;14.30;99.90
18823;DHT22;9540;51.550;7.980;2023-06-04T07:31:10;14.40;99.90
18823;DHT22;9540;51.550;7.980;2023-06-04T07:33:38;14.50;99.90
18823;DHT22;9540;51.550;7.980;2023-06-04T07:36:09;14.70;99.90
18823;DHT22;9540;51.550;7.980;2023-06-04T07:38:38;14.80;99.90
18823;DHT22;9540;51.550;7.980;2023-06-04T07:41:05;14.90;99.90
18823;DHT22;9540;51.550;7.980;2023-06-04T07:43:34;15.10;99.90
18823;DHT22;9540;51.550;7.980;2023-06-04T07:46:01;15.30;99.90
18823;DHT22;9540;51.550;7.980;2023-06-04T07:48:28;15.40;99.90
18823;DHT22;9540;51.550;7.980;2023-06-04T07:50:57;15.50;99.90
18823;DHT22;9540;51.550;7.980;2023-06-04T07:53:24;15.60;99.90
18823;DHT22;9540;51.550;7.980;2023-06-04T07:55:56;15.70;99.90
18823;DHT22;9540;51.550;7.980;2023-06-04T07:58:24;15.80;99.90
18823;DHT22;9540;51.550;7.980;2023-06-04T08:00:52;16.00;99.90
18823;DHT22;9540;51.550;7.980;2023-06-04T08:03:20;16.10;99.90
18823;DHT22;9540;51.550;7.980;2023-06-04T08:05:47;16.20;99.90
18823;DHT22;9540;51.550;7.980;2023-06-04T08:08:14;16.30;99.90
18823;DHT22;9540;51.550;7.980;2023-06-04T08:10:42;16.30;99.90
18823;DHT22;9540;51.550;7.980;2023-06-04T08:13:10;16.40;99.90
18823;DHT22;9540;51.550;7.980;2023-06-04T08:15:37;16.50;99.90
18823;DHT22;9540;51.550;7.980;2023-06-04T08:18:04;16.60;99.90
18823;DHT22;9540;51.550;7.980;2023-06-04T08:20:32;16.80;99.90
18823;DHT22;9540;51.550;7.980;2023-06-04T08:22:59;16.90;99.90
18823;DHT22;9540;51.550;7.980;2023-06-04T08:25:26;17.10;99.90
18823;DHT22;9540;51.550;7.980;2023-06-04T08:27:53;17.20;99.90
18823;DHT22;9540;51.550;7.980;2023-06-04T08:30:22;17.30;99.90
18823;DHT22;9540;51.550;7.980;2023-06-04T08:32:49;17.40;99.90
18823;DHT22;9540;51.550;7.980;2023-06-04T08:35:16;17.60;99.90
18823;DHT22;9540;51.550;7.980;2023-06-04T08:37:43;17.70;99.90
18823;DHT22;9540;51.550;7.980;2023-06-04T08:40:12;17.70;99.90
18823;DHT22;9540;51.550;7.980;2023-06-04T08:42:41;17.80;99.90
18823;DHT22;9540;51.550;7.980;2023-06-04T08:45:11;17.90;99.90
18823;DHT22;9540;51.550;7.980;2023-06-04T08:47:43;18.00;99.90
18823;DHT22;9540;51.550;7.980;2023-06-04T08:50:11;18.10;99.90
18823;DHT22;9540;51.550;7.980;2023-06-04T08:52:39;18.10;99.90
18823;DHT22;9540;51.550;7.980;2023-06-04T08:55:08;18.20;99.90
18823;DHT22;9540;51.550;7.980;2023-06-04T08:57:38;18.30;99.90
18823;DHT22;9540;51.550;7.980;2023-06-04T09:00:06;18.40;99.90
18823;DHT22;9540;51.550;7.980;2023-06-04T09:02:36;18.60;98.80
18823;DHT22;9540;51.550;7.980;2023-06-04T09:05:06;18.60;99.90
18823;DHT22;9540;51.550;7.980;2023-06-04T09:07:35;18.70;96.30
18823;DHT22;9540;51.550;7.980;2023-06-04T09:10:04;18.70;96.00
18823;DHT22;9540;51.550;7.980;2023-06-04T09:12:36;18.70;96.70
18823;DHT22;9540;51.550;7.980;2023-06-04T09:15:04;18.80;92.10
18823;DHT22;9540;51.550;7.980;2023-06-04T09:17:31;18.80;95.00
18823;DHT22;9540;51.550;7.980;2023-06-04T09:19:58;18.90;99.80
18823;DHT22;9540;51.550;7.980;2023-06-04T09:22:36;19.00;96.20
18823;DHT22;9540;51.550;7.980;2023-06-04T09:25:05;19.10;99.80
18823;DHT22;9540;51.550;7.980;2023-06-04T09:27:38;19.20;96.20
18823;DHT22;9540;51.550;7.980;2023-06-04T09:30:06;19.30;93.90
18823;DHT22;9540;51.550;7.980;2023-06-04T09:32:34;19.40;93.00
18823;DHT22;9540;51.550;7.980;2023-06-04T09:35:09;19.40;94.20
18823;DHT22;9540;51.550;7.980;2023-06-04T09:37:38;19.50;90.10
18823;DHT22;9540;51.550;7.980;2023-06-04T09:40:08;19.50;87.00
18823;DHT22;9540;51.550;7.980;2023-06-04T09:42:45;19.60;90.20
18823;DHT22;9540;51.550;7.980;2023-06-04T09:45:12;19.70;92.40
18823;DHT22;9540;51.550;7.980;2023-06-04T09:47:40;19.70;88.10
18823;DHT22;9540;51.550;7.980;2023-06-04T09:50:09;19.70;90.30
18823;DHT22;9540;51.550;7.980;2023-06-04T09:52:37;19.80;82.50
18823;DHT22;9540;51.550;7.980;2023-06-04T09:55:15;19.80;86.60
18823;DHT22;9540;51.550;7.980;2023-06-04T09:57:47;19.90;86.20
18823;DHT22;9540;51.550;7.980;2023-06-04T10:00:16;20.00;87.80
18823;DHT22;9540;51.550;7.980;2023-06-04T10:02:44;20.10;84.00
18823;DHT22;9540;51.550;7.980;2023-06-04T10:05:13;20.20;85.40
18823;DHT22;9540;51.550;7.980;2023-06-04T10:07:43;20.30;88.90
18823;DHT22;9540;51.550;7.980;2023-06-04T10:10:15;20.40;81.90
18823;DHT22;9540;51.550;7.980;2023-06-04T10:12:42;20.50;82.20
18823;DHT22;9540;51.550;7.980;2023-06-04T10:15:11;20.60;80.20
18823;DHT22;9540;51.550;7.980;2023-06-04T10:17:39;20.70;86.20
18823;DHT22;9540;51.550;7.980;2023-06-04T10:20:07;20.70;84.30
18823;DHT22;9540;51.550;7.980;2023-06-04T10:22:36;20.80;82.40
18823;DHT22;9540;51.550;7.980;2023-06-04T10:25:05;20.90;83.90
18823;DHT22;9540;51.550;7.980;2023-06-04T10:27:33;20.90;81.50
18823;DHT22;9540;51.550;7.980;2023-06-04T10:30:02;21.00;84.20
18823;DHT22;9540;51.550;7.980;2023-06-04T10:32:30;21.10;82.90
18823;DHT22;9540;51.550;7.980;2023-06-04T10:34:57;21.10;74.70
18823;DHT22;9540;51.550;7.980;2023-06-04T10:37:26;21.20;78.00
18823;DHT22;9540;51.550;7.980;2023-06-04T10:39:56;21.20;78.00
18823;DHT22;9540;51.550;7.980;2023-06-04T10:42:25;21.20;80.10
18823;DHT22;9540;51.550;7.980;2023-06-04T10:44:54;21.20;80.60
18823;DHT22;9540;51.550;7.980;2023-06-04T10:47:22;21.20;81.60
18823;DHT22;9540;51.550;7.980;2023-06-04T10:49:50;21.20;83.40
18823;DHT22;9540;51.550;7.980;2023-06-04T10:52:17;21.20;79.80
18823;DHT22;9540;51.550;7.980;2023-06-04T10:54:46;21.20;76.50
18823;DHT22;9540;51.550;7.980;2023-06-04T10:57:16;21.20;75.20
18823;DHT22;9540;51.550;7.980;2023-06-04T10:59:54;21.20;75.50
18823;DHT22;9540;51.550;7.980;2023-06-04T11:02:22;21.20;80.90
18823;DHT22;9540;51.550;7.980;2023-06-04T11:04:59;21.30;80.60
18823;DHT22;9540;51.550;7.980;2023-06-04T11:07:27;21.20;82.50
18823;DHT22;9540;51.550;7.980;2023-06-04T11:09:55;21.30;77.50
18823;DHT22;9540;51.550;7.980;2023-06-04T11:12:22;21.30;77.50
18823;DHT22;9540;51.550;7.980;2023-06-04T11:14:57;21.40;73.50
18823;DHT22;9540;51.550;7.980;2023-06-04T11:17:25;21.40;76.50
18823;DHT22;9540;51.550;7.980;2023-06-04T11:19:52;21.60;81.00
18823;DHT22;9540;51.550;7.980;2023-06-04T11:22:21;21.60;80.20
18823;DHT22;9540;51.550;7.980;2023-06-04T11:24:48;21.60;77.60
18823;DHT22;9540;51.550;7.980;2023-06-04T11:27:18;21.70;72.80
18823;DHT22;9540;51.550;7.980;2023-06-04T11:29:49;21.70;77.30
18823;DHT22;9540;51.550;7.980;2023-06-04T11:32:24;21.80;75.60
18823;DHT22;9540;51.550;7.980;2023-06-04T11:34:51;21.90;76.00
18823;DHT22;9540;51.550;7.980;2023-06-04T11:37:18;21.90;70.70
18823;DHT22;9540;51.550;7.980;2023-06-04T11:39:45;21.90;70.50
18823;DHT22;9540;51.550;7.980;2023-06-04T11:42:13;21.90;73.70
18823;DHT22;9540;51.550;7.980;2023-06-04T11:44:40;21.90;73.70
18823;DHT22;9540;51.550;7.980;2023-06-04T11:47:11;22.00;75.20
18823;DHT22;9540;51.550;7.980;2023-06-04T11:49:40;22.20;76.30
18823;DHT22;9540;51.550;7.980;2023-06-04T11:52:08;22.20;71.80
18823;DHT22;9540;51.550;7.980;2023-06-04T11:54:36;22.30;69.10
18823;DHT22;9540;51.550;7.980;2023-06-04T11:57:05;22.30;72.30
18823;DHT22;9540;51.550;7.980;2023-06-04T11:59:33;22.40;72.20
18823;DHT22;9540;51.550;7.980;2023-06-04T12:02:01;22.30;71.70
18823;DHT22;9540;51.550;7.980;2023-06-04T12:04:30;22.30;70.00
18823;DHT22;9540;51.550;7.980;2023-06-04T12:07:00;22.40;68.40
18823;DHT22;9540;51.550;7.980;2023-06-04T12:09:29;22.30;67.10
18823;DHT22;9540;51.550;7.980;2023-06-04T12:11:59;22.40;67.60
18823;DHT22;9540;51.550;7.980;2023-06-04T12:14:26;22.40;72.90
18823;DHT22;9540;51.550;7.980;2023-06-04T12:16:57;22.50;71.20
18823;DHT22;9540;51.550;7.980;2023-06-04T12:19:24;22.50;73.50
18823;DHT22;9540;51.550;7.980;2023-06-04T12:22:03;22.50;67.40
18823;DHT22;9540;51.550;7.980;2023-06-04T12:24:33;22.50;66.60
18823;DHT22;9540;51.550;7.980;2023-06-04T12:27:02;22.40;67.50
18823;DHT22;9540;51.550;7.980;2023-06-04T12:29:30;22.50;70.30
18823;DHT22;9540;51.550;7.980;2023-06-04T12:32:04;22.40;70.60
18823;DHT22;9540;51.550;7.980;2023-06-04T12:34:33;22.50;71.60
18823;DHT22;9540;51.550;7.980;2023-06-04T12:37:02;22.40;65.80
18823;DHT22;9540;51.550;7.980;2023-06-04T12:39:31;22.50;67.60
18823;DHT22;9540;51.550;7.980;2023-06-04T12:41:59;22.50;66.20
18823;DHT22;9540;51.550;7.980;2023-06-04T12:44:26;22.50;64.30
18823;DHT22;9540;51.550;7.980;2023-06-04T12:46:53;22.50;65.00
18823;DHT22;9540;51.550;7.980;2023-06-04T12:49:20;22.50;67.10
18823;DHT22;9540;51.550;7.980;2023-06-04T12:51:50;22.50;65.60
18823;DHT22;9540;51.550;7.980;2023-06-04T12:54:19;22.50;67.30
18823;DHT22;9540;51.550;7.980;2023-06-04T12:56:46;22.50;65.00
18823;DHT22;9540;51.550;7.980;2023-06-04T12:59:13;22.60;67.80
18823;DHT22;9540;51.550;7.980;2023-06-04T13:01:40;22.60;67.70
18823;DHT22;9540;51.550;7.980;2023-06-04T13:04:08;22.50;67.40
18823;DHT22;9540;51.550;7.980;2023-06-04T13:06:35;22.50;64.30
18823;DHT22;9540;51.550;7.980;2023-06-04T13:09:03;22.40;63.80
18823;DHT22;9540;51.550;7.980;2023-06-04T13:11:37;22.40;63.30
18823;DHT22;9540;51.550;7.980;2023-06-04T13:14:04;22.40;68.70
18823;DHT22;9540;51.550;7.980;2023-06-04T13:16:32;22.50;67.70
18823;DHT22;9540;51.550;7.980;2023-06-04T13:18:59;22.50;67.40
18823;DHT22;9540;51.550;7.980;2023-06-04T13:21:26;22.40;66.10
18823;DHT22;9540;51.550;7.980;2023-06-04T13:23:53;22.50;64.60
18823;DHT22;9540;51.550;7.980;2023-06-04T13:26:22;22.50;63.90
18823;DHT22;9540;51.550;7.980;2023-06-04T13:28:50;22.50;63.00
18823;DHT22;9540;51.550;7.980;2023-06-04T13:31:17;22.50;65.40
18823;DHT22;9540;51.550;7.980;2023-06-04T13:33:46;22.50;64.30
18823;DHT22;9540;51.550;7.980;2023-06-04T13:36:13;22.50;62.50
18823;DHT22;9540;51.550;7.980;2023-06-04T13:38:40;22.60;61.20
18823;DHT22;9540;51.550;7.980;2023-06-04T13:41:08;22.70;61.10
18823;DHT22;9540;51.550;7.980;2023-06-04T13:43:36;22.80;63.10
18823;DHT22;9540;51.550;7.980;2023-06-04T13:46:05;22.90;62.30
18823;DHT22;9540;51.550;7.980;2023-06-04T13:48:33;23.00;62.90
18823;DHT22;9540;51.550;7.980;2023-06-04T13:51:00;22.90;64.90
18823;DHT22;9540;51.550;7.980;2023-06-04T13:53:27;22.90;67.70
18823;DHT22;9540;51.550;7.980;2023-06-04T13:55:54;22.90;64.00
18823;DHT22;9540;51.550;7.980;2023-06-04T13:58:24;22.90;60.20
18823;DHT22;9540;51.550;7.980;2023-06-04T14:00:51;22.90;64.70
18823;DHT22;9540;51.550;7.980;2023-06-04T14:03:20;22.90;63.60
18823;DHT22;9540;51.550;7.980;2023-06-04T14:05:47;22.90;62.50
18823;DHT22;9540;51.550;7.980;2023-06-04T14:08:14;22.90;64.90
18823;DHT22;9540;51.550;7.980;2023-06-04T14:10:41;22.90;66.80
18823;DHT22;9540;51.550;7.980;2023-06-04T14:13:09;23.00;68.30
18823;DHT22;9540;51.550;7.980;2023-06-04T14:15:37;23.00;62.60
18823;DHT22;9540;51.550;7.980;2023-06-04T14:18:04;23.00;63.60
18823;DHT22;9540;51.550;7.980;2023-06-04T14:20:34;23.20;63.90
18823;DHT22;9540;51.550;7.980;2023-06-04T14:23:02;23.10;63.00
18823;DHT22;9540;51.550;7.980;2023-06-04T14:25:29;23.10;63.80
18823;DHT22;9540;51.550;7.980;2023-06-04T14:28:01;23.20;61.60
18823;DHT22;9540;51.550;7.980;2023-06-04T14:30:28;23.10;61.90
18823;DHT22;9540;51.550;7.980;2023-06-04T14:32:55;23.20;62.10
18823;DHT22;9540;51.550;7.980;2023-06-04T14:35:22;23.20;62.50
18823;DHT22;9540;51.550;7.980;2023-06-04T14:37:51;23.30;60.20
18823;DHT22;9540;51.550;7.980;2023-06-04T14:40:18;23.40;61.70
18823;DHT22;9540;51.550;7.980;2023-06-04T14:42:45;23.50;63.00
18823;DHT22;9540;51.550;7.980;2023-06-04T14:45:12;23.40;63.00
18823;DHT22;9540;51.550;7.980;2023-06-04T14:47:39;23.50;61.70
18823;DHT22;9540;51.550;7.980;2023-06-04T14:50:07;23.50;60.90
18823;DHT22;9540;51.550;7.980;2023-06-04T14:52:34;23.50;61.40
18823;DHT22;9540;51.550;7.980;2023-06-04T14:55:02;23.40;61.60
18823;DHT22;9540;51.550;7.980;2023-06-04T14:57:29;23.50;61.70
18823;DHT22;9540;51.550;7.980;2023-06-04T14:59:56;23.50;62.60
18823;DHT22;9540;51.550;7.980;2023-06-04T15:02:23;23.50;64.30
18823;DHT22;9540;51.550;7.980;2023-06-04T15:04:51;23.40;63.30
18823;DHT22;9540;51.550;7.980;2023-06-04T15:07:18;23.40;64.90
18823;DHT22;9540;51.550;7.980;2023-06-04T15:09:45;23.30;66.00
18823;DHT22;9540;51.550;7.980;2023-06-04T15:12:14;23.30;64.40
18823;DHT22;9540;51.550;7.980;2023-06-04T15:14:42;23.30;64.70
18823;DHT22;9540;51.550;7.980;2023-06-04T15:17:09;23.40;68.50
18823;DHT22;9540;51.550;7.980;2023-06-04T15:19:36;23.40;64.10
18823;DHT22;9540;51.550;7.980;2023-06-04T15:22:04;23.50;65.40
18823;DHT22;9540;51.550;7.980;2023-06-04T15:24:31;23.60;64.00
18823;DHT22;9540;51.550;7.980;2023-06-04T15:26:58;23.60;63.10
18823;DHT22;9540;51.550;7.980;2023-06-04T15:29:27;23.60;64.60
18823;DHT22;9540;51.550;7.980;2023-06-04T15:31:54;23.60;66.70
18823;DHT22;9540;51.550;7.980;2023-06-04T15:34:21;23.60;67.30
18823;DHT22;9540;51.550;7.980;2023-06-04T15:36:48;23.60;66.80
18823;DHT22;9540;51.550;7.980;2023-06-04T15:39:15;23.60;64.40
18823;DHT22;9540;51.550;7.980;2023-06-04T15:41:43;23.70;65.90
18823;DHT22;9540;51.550;7.980;2023-06-04T15:44:10;23.70;67.00
18823;DHT22;9540;51.550;7.980;2023-06-04T15:46:38;23.70;66.50
18823;DHT22;9540;51.550;7.980;2023-06-04T15:49:06;23.70;64.30
18823;DHT22;9540;51.550;7.980;2023-06-04T15:51:34;23.70;63.70
18823;DHT22;9540;51.550;7.980;2023-06-04T15:54:01;23.70;63.10
18823;DHT22;9540;51.550;7.980;2023-06-04T15:56:28;23.70;63.70
18823;DHT22;9540;51.550;7.980;2023-06-04T15:58:55;23.70;65.00